createdAt,value
2022-08-20T00:00:39.062Z,15.57
2022-08-20T00:04:01.732Z,14.30
2022-08-20T00:07:23.801Z,14.73
2022-08-20T00:10:54.970Z,14.98
2022-08-20T00:14:17.193Z,17.38
2022-08-20T00:17:39.098Z,14.80
2022-08-20T00:21:01.028Z,15.52
2022-08-20T00:24:22.806Z,14.18
2022-08-20T00:27:45.923Z,14.80
2022-08-20T00:31:11.089Z,14.75
2022-08-20T00:34:32.894Z,14.25
2022-08-20T00:37:59.983Z,13.98
2022-08-20T00:41:26.261Z,14.77
2022-08-20T00:44:49.179Z,15.57
2022-08-20T00:48:11.559Z,14.82
2022-08-20T00:51:38.150Z,15.05
2022-08-20T00:55:02.983Z,16.73
2022-08-20T00:58:25.719Z,13.90
2022-08-20T01:01:55.903Z,14.52
2022-08-20T01:05:18.574Z,13.40
2022-08-20T01:08:42.677Z,13.98
2022-08-20T01:12:06.299Z,16.20
2022-08-20T01:15:31.884Z,15.82
2022-08-20T01:18:57.661Z,14.05
2022-08-20T01:22:44.335Z,17.08
2022-08-20T01:26:11.555Z,14.20
2022-08-20T01:29:36.850Z,13.95
2022-08-20T01:32:58.619Z,14.18
2022-08-20T01:36:26.171Z,15.05
2022-08-20T01:39:48.151Z,14.23
2022-08-20T01:43:11.654Z,14.70
2022-08-20T01:46:44.037Z,12.85
2022-08-20T01:50:16.802Z,16.08
2022-08-20T01:53:41.487Z,15.43
2022-08-20T01:57:06.858Z,13.90
2022-08-20T02:00:30.106Z,14.43
2022-08-20T02:03:53.899Z,14.45
2022-08-20T02:07:18.134Z,16.65
2022-08-20T02:10:40.470Z,17.40
2022-08-20T02:14:03.190Z,16.77
2022-08-20T02:17:29.393Z,16.63
2022-08-20T02:20:52.762Z,19.17
2022-08-20T02:24:15.290Z,18.63
2022-08-20T02:27:38.931Z,17.02
2022-08-20T02:31:03.037Z,19.45
2022-08-20T02:34:26.278Z,20.23
2022-08-20T02:37:48.497Z,21.55
2022-08-20T02:41:12.317Z,21.38
2022-08-20T02:44:35.505Z,21.20
2022-08-20T02:47:58.996Z,20.35
2022-08-20T02:51:30.530Z,21.55
2022-08-20T02:54:52.822Z,24.30
2022-08-20T02:58:14.498Z,20.20
2022-08-20T03:01:36.419Z,21.48
2022-08-20T03:04:58.206Z,21.00
2022-08-20T03:08:21.981Z,19.95
2022-08-20T03:11:43.818Z,26.55
2022-08-20T03:15:07.565Z,20.73
2022-08-20T03:18:44.702Z,24.00
2022-08-20T03:22:07.095Z,24.25
2022-08-20T03:25:30.657Z,23.58
2022-08-20T03:28:52.360Z,25.33
2022-08-20T03:32:14.417Z,26.90
2022-08-20T03:35:39.538Z,25.77
2022-08-20T03:39:05.534Z,25.40
2022-08-20T03:42:28.723Z,24.77
2022-08-20T03:45:50.786Z,25.95
2022-08-20T03:49:12.809Z,26.20
2022-08-20T03:52:34.320Z,27.95
2022-08-20T03:56:00.485Z,27.33
2022-08-20T03:59:25.516Z,29.02
2022-08-20T04:02:47.774Z,31.08
2022-08-20T04:06:09.807Z,29.05
2022-08-20T04:09:31.739Z,31.55
2022-08-20T04:12:53.888Z,30.42
2022-08-20T04:16:18.076Z,31.60
2022-08-20T04:19:42.018Z,29.35
2022-08-20T04:23:04.731Z,33.03
2022-08-20T04:26:26.738Z,32.38
2022-08-20T04:29:48.306Z,31.67
2022-08-20T04:33:11.603Z,30.48
2022-08-20T04:36:34.060Z,30.25
2022-08-20T04:40:13.409Z,30.95
2022-08-20T04:43:37.217Z,29.45
2022-08-20T04:46:58.857Z,29.30
2022-08-20T04:50:22.195Z,33.80
2022-08-20T04:53:51.727Z,30.80
2022-08-20T04:57:14.470Z,28.15
2022-08-20T05:00:36.638Z,30.13
2022-08-20T05:03:59.347Z,29.60
2022-08-20T05:07:22.419Z,31.77
2022-08-20T05:10:45.376Z,31.80
2022-08-20T05:14:09.643Z,32.13
2022-08-20T05:17:31.661Z,30.38
2022-08-20T05:20:54.087Z,32.05
2022-08-20T05:24:17.070Z,30.40
2022-08-20T05:27:45.966Z,28.42
2022-08-20T05:31:10.172Z,31.02
2022-08-20T05:34:32.075Z,27.80
2022-08-20T05:37:54.056Z,32.55
2022-08-20T05:41:29.342Z,27.48
2022-08-20T05:44:51.499Z,30.65
2022-08-20T05:48:16.549Z,29.70
2022-08-20T05:51:38.650Z,29.45
2022-08-20T05:55:00.551Z,31.30
2022-08-20T05:58:25.509Z,28.13
2022-08-20T06:01:47.341Z,30.25
2022-08-20T06:05:09.066Z,28.90
2022-08-20T06:08:30.572Z,25.40
2022-08-20T06:11:52.555Z,26.23
2022-08-20T06:15:15.597Z,26.63
2022-08-20T06:18:37.649Z,28.92
2022-08-20T06:21:59.411Z,29.60
2022-08-20T06:25:21.685Z,24.90
2022-08-20T06:28:43.641Z,25.58
2022-08-20T06:32:07.920Z,24.63
2022-08-20T06:35:29.862Z,22.40
2022-08-20T06:38:52.051Z,27.35
2022-08-20T06:42:13.783Z,22.45
2022-08-20T06:45:43.795Z,22.42
2022-08-20T06:49:08.726Z,20.90
2022-08-20T06:52:52.315Z,21.02
2022-08-20T06:56:12.695Z,19.55
2022-08-20T06:59:34.766Z,19.85
2022-08-20T07:02:57.691Z,22.05
2022-08-20T07:06:20.820Z,20.17
2022-08-20T07:09:42.501Z,18.80
2022-08-20T07:13:04.810Z,21.38
2022-08-20T07:16:27.240Z,19.55
2022-08-20T07:19:48.909Z,17.35
2022-08-20T07:23:12.403Z,18.30
2022-08-20T07:26:34.543Z,17.48
2022-08-20T07:30:15.227Z,17.60
2022-08-20T07:33:37.507Z,21.42
2022-08-20T07:37:01.621Z,19.25
2022-08-20T07:40:28.527Z,16.98
2022-08-20T07:43:50.323Z,17.80
2022-08-20T07:47:12.449Z,18.48
2022-08-20T07:50:34.165Z,19.13
2022-08-20T07:53:58.258Z,19.17
2022-08-20T07:57:21.638Z,19.05
2022-08-20T08:00:43.270Z,19.48
2022-08-20T08:04:05.293Z,18.95
2022-08-20T08:07:27.415Z,20.23
2022-08-20T08:10:52.198Z,18.63
2022-08-20T08:14:27.407Z,19.77
2022-08-20T08:17:50.908Z,19.70
2022-08-20T08:21:14.188Z,18.65
2022-08-20T08:24:36.263Z,21.08
2022-08-20T08:28:00.260Z,19.48
2022-08-20T08:31:25.554Z,21.45
2022-08-20T08:34:48.132Z,22.42
2022-08-20T08:38:09.663Z,22.83
2022-08-20T08:41:38.434Z,22.08
2022-08-20T08:45:00.510Z,21.88
2022-08-20T08:48:34.858Z,18.38
2022-08-20T08:52:04.496Z,21.13
2022-08-20T08:55:29.647Z,23.35
2022-08-20T08:58:51.688Z,19.48
2022-08-20T09:02:21.640Z,22.05
2022-08-20T09:05:49.345Z,20.15
2022-08-20T09:09:19.195Z,21.20
2022-08-20T09:12:45.701Z,20.88
2022-08-20T09:16:09.279Z,21.83
2022-08-20T09:19:31.911Z,22.13
2022-08-20T09:22:55.700Z,44.80
2022-08-20T09:26:17.854Z,23.10
2022-08-20T09:29:40.809Z,19.83
2022-08-20T09:33:03.801Z,20.70
2022-08-20T09:36:31.569Z,22.45
2022-08-20T09:39:57.025Z,18.27
2022-08-20T09:43:18.567Z,20.73
2022-08-20T09:46:40.390Z,21.08
2022-08-20T09:50:02.374Z,22.13
2022-08-20T09:53:24.567Z,24.23
2022-08-20T09:56:47.565Z,20.23
2022-08-20T10:00:11.825Z,20.48
2022-08-20T10:03:36.436Z,18.45
2022-08-20T10:07:08.545Z,20.02
2022-08-20T10:10:30.257Z,18.73
2022-08-20T10:13:53.745Z,18.05
2022-08-20T10:17:15.781Z,19.95
2022-08-20T10:20:37.886Z,20.60
2022-08-20T10:24:00.186Z,19.80
2022-08-20T10:27:21.790Z,19.38
2022-08-20T10:30:45.257Z,19.15
2022-08-20T10:34:07.011Z,22.33
2022-08-20T10:37:28.874Z,19.90
2022-08-20T10:40:52.640Z,23.48
2022-08-20T10:44:14.623Z,18.90
2022-08-20T10:47:37.887Z,17.77
2022-08-20T10:50:59.794Z,17.83
2022-08-20T10:54:21.435Z,18.42
2022-08-20T10:57:44.042Z,17.95
2022-08-20T11:01:05.957Z,17.83
2022-08-20T11:04:28.939Z,19.08
2022-08-20T11:07:56.573Z,17.80
2022-08-20T11:11:18.455Z,18.92
2022-08-20T11:14:40.584Z,19.30
2022-08-20T11:18:02.773Z,15.32
2022-08-20T11:21:26.166Z,17.67
2022-08-20T11:24:48.567Z,15.15
2022-08-20T11:28:10.859Z,17.20
2022-08-20T11:31:32.577Z,14.43
2022-08-20T11:34:54.603Z,13.82
2022-08-20T11:38:19.518Z,14.68
2022-08-20T11:41:41.359Z,12.95
2022-08-20T11:45:08.670Z,17.63
2022-08-20T11:48:31.521Z,14.95
2022-08-20T11:51:53.465Z,10.18
2022-08-20T11:55:17.995Z,13.05
2022-08-20T11:58:39.874Z,10.23
2022-08-20T12:02:03.150Z,9.30
2022-08-20T12:05:27.226Z,10.02
2022-08-20T12:08:49.230Z,9.32
2022-08-20T12:12:13.390Z,10.32
2022-08-20T12:15:36.365Z,10.25
2022-08-20T12:18:58.198Z,9.32
2022-08-20T12:22:25.362Z,9.95
2022-08-20T12:25:47.177Z,10.48
2022-08-20T12:29:10.325Z,8.35
2022-08-20T12:32:33.448Z,9.77
2022-08-20T12:35:54.916Z,14.82
2022-08-20T12:39:17.209Z,9.50
2022-08-20T12:42:39.302Z,8.52
2022-08-20T12:46:02.443Z,8.43
2022-08-20T12:49:24.402Z,8.05
2022-08-20T12:52:48.154Z,7.55
2022-08-20T12:56:10.267Z,9.15
2022-08-20T12:59:32.107Z,7.43
2022-08-20T13:02:57.071Z,8.40
2022-08-20T13:06:18.754Z,8.23
2022-08-20T13:09:41.170Z,6.75
2022-08-20T13:13:03.840Z,10.98
2022-08-20T13:16:25.522Z,8.90
2022-08-20T13:19:49.090Z,8.00
2022-08-20T13:23:10.938Z,6.43
2022-08-20T13:26:32.931Z,7.88
2022-08-20T13:29:58.909Z,6.55
2022-08-20T13:33:20.779Z,6.75
2022-08-20T13:36:44.133Z,6.97
2022-08-20T13:40:08.148Z,7.00
2022-08-20T13:43:29.921Z,18.83
2022-08-20T13:46:51.783Z,8.00
2022-08-20T13:50:17.147Z,9.73
2022-08-20T13:53:40.213Z,6.47
2022-08-20T13:57:06.822Z,6.05
2022-08-20T14:00:32.324Z,7.68
2022-08-20T14:03:53.967Z,7.03
2022-08-20T14:07:18.945Z,7.53
2022-08-20T14:10:42.925Z,7.30
2022-08-20T14:14:04.877Z,7.45
2022-08-20T14:17:29.543Z,7.10
2022-08-20T14:20:51.577Z,10.13
2022-08-20T14:24:15.094Z,9.85
2022-08-20T14:27:39.435Z,9.18
2022-08-20T14:31:01.180Z,8.45
2022-08-20T14:34:23.102Z,7.78
2022-08-20T14:37:48.810Z,9.43
2022-08-20T14:41:10.554Z,9.80
2022-08-20T14:44:33.848Z,7.90
2022-08-20T14:47:58.192Z,9.57
2022-08-20T14:51:19.810Z,9.77
2022-08-20T14:54:42.639Z,8.07
2022-08-20T14:58:09.119Z,8.18
2022-08-20T15:01:32.295Z,8.95
2022-08-20T15:04:55.663Z,10.07
2022-08-20T15:08:17.348Z,8.73
2022-08-20T15:11:40.923Z,14.13
2022-08-20T15:15:13.244Z,10.65
2022-08-20T15:18:37.405Z,8.52
2022-08-20T15:21:58.977Z,9.05
2022-08-20T15:25:22.973Z,11.10
2022-08-20T15:28:44.966Z,9.35
2022-08-20T15:32:08.555Z,10.43
2022-08-20T15:35:32.081Z,9.23
2022-08-20T15:38:53.902Z,11.98
2022-08-20T15:42:15.986Z,9.82
2022-08-20T15:45:37.794Z,10.93
2022-08-20T15:48:59.686Z,10.88
2022-08-20T15:52:24.391Z,14.38
2022-08-20T15:55:59.294Z,11.18
2022-08-20T15:59:50.321Z,10.23
2022-08-20T16:03:39.862Z,11.55
2022-08-20T16:07:07.620Z,14.80
2022-08-20T16:10:39.406Z,12.52
2022-08-20T16:14:15.854Z,10.55
2022-08-20T16:17:44.919Z,12.32
2022-08-20T16:21:10.762Z,14.60
2022-08-20T16:24:33.522Z,11.93
2022-08-20T16:28:12.124Z,12.35
2022-08-20T16:31:40.958Z,11.13
2022-08-20T16:35:11.733Z,12.57
2022-08-20T16:38:40.385Z,35.50
2022-08-20T16:42:05.761Z,23.77
2022-08-20T16:45:32.910Z,13.93
2022-08-20T16:48:58.459Z,14.55
2022-08-20T16:52:20.600Z,15.90
2022-08-20T16:55:42.545Z,18.50
2022-08-20T16:59:07.080Z,15.05
2022-08-20T17:02:32.403Z,13.70
2022-08-20T17:05:57.314Z,14.68
2022-08-20T17:09:33.958Z,14.63
2022-08-20T17:12:59.745Z,15.45
2022-08-20T17:16:23.267Z,15.82
2022-08-20T17:19:54.009Z,13.32
2022-08-20T17:23:18.646Z,14.90
2022-08-20T17:26:43.863Z,15.77
2022-08-20T17:30:20.113Z,13.40
2022-08-20T17:33:41.845Z,15.75
2022-08-20T17:37:19.414Z,15.75
2022-08-20T17:40:46.037Z,17.35
2022-08-20T17:44:19.722Z,14.05
2022-08-20T17:47:44.684Z,15.10
2022-08-20T17:51:18.877Z,15.90
2022-08-20T17:54:45.095Z,15.43
2022-08-20T17:58:13.546Z,14.50
2022-08-20T18:01:36.190Z,15.05
2022-08-20T18:04:58.516Z,14.32
2022-08-20T18:08:41.226Z,18.30
2022-08-20T18:12:24.310Z,17.02
2022-08-20T18:15:59.074Z,17.17
2022-08-20T18:19:40.396Z,16.35
2022-08-20T18:23:07.583Z,16.23
2022-08-20T18:26:34.566Z,17.10
2022-08-20T18:30:00.889Z,14.63
2022-08-20T18:33:29.973Z,16.33
2022-08-20T18:36:56.943Z,21.05
2022-08-20T18:40:28.689Z,17.00
2022-08-20T18:43:50.741Z,15.25
2022-08-20T18:47:27.320Z,16.70
2022-08-20T18:50:55.218Z,17.15
2022-08-20T18:54:24.945Z,15.15
2022-08-20T18:57:55.283Z,15.13
2022-08-20T19:01:18.073Z,16.08
2022-08-20T19:04:41.548Z,15.32
2022-08-20T19:08:06.080Z,14.38
2022-08-20T19:11:46.466Z,16.88
2022-08-20T19:15:13.467Z,16.73
2022-08-20T19:18:43.725Z,15.75
2022-08-20T19:22:07.828Z,18.50
2022-08-20T19:25:32.479Z,18.20
2022-08-20T19:28:58.110Z,15.52
2022-08-20T19:32:21.377Z,18.92
2022-08-20T19:35:43.376Z,16.25
2022-08-20T19:39:16.843Z,17.30
2022-08-20T19:42:44.150Z,17.38
2022-08-20T19:46:05.931Z,16.10
2022-08-20T19:49:35.109Z,16.02
2022-08-20T19:53:05.943Z,16.60
2022-08-20T19:56:29.631Z,14.75
2022-08-20T20:00:00.236Z,16.17
2022-08-20T20:03:24.950Z,16.23
2022-08-20T20:06:50.018Z,19.15
2022-08-20T20:10:29.457Z,17.65
2022-08-20T20:13:55.793Z,18.55
2022-08-20T20:17:23.331Z,18.15
2022-08-20T20:20:57.529Z,18.67
2022-08-20T20:24:26.257Z,18.35
2022-08-20T20:27:50.673Z,16.40
2022-08-20T20:31:19.165Z,16.55
2022-08-20T20:34:54.885Z,17.08
2022-08-20T20:38:26.616Z,17.10
2022-08-20T20:41:53.427Z,15.55
2022-08-20T20:45:20.177Z,19.25
2022-08-20T20:48:48.375Z,17.30
2022-08-20T20:52:22.085Z,17.98
2022-08-20T20:55:55.404Z,16.23
2022-08-20T20:59:17.531Z,14.27
2022-08-20T21:02:39.114Z,17.23
2022-08-20T21:06:02.122Z,16.17
2022-08-20T21:09:25.801Z,15.15
2022-08-20T21:12:52.061Z,15.63
2022-08-20T21:16:15.440Z,23.05
2022-08-20T21:19:45.187Z,15.73
2022-08-20T21:23:08.734Z,16.15
2022-08-20T21:26:30.667Z,19.38
2022-08-20T21:29:53.173Z,16.80
2022-08-20T21:33:15.199Z,17.85
2022-08-20T21:36:37.534Z,17.05
2022-08-20T21:40:00.658Z,17.45
2022-08-20T21:43:22.664Z,15.95
2022-08-20T21:46:45.183Z,18.23
2022-08-20T21:50:08.049Z,15.52
2022-08-20T21:53:29.918Z,16.40
2022-08-20T21:56:55.583Z,16.08
2022-08-20T22:00:41.772Z,15.63
2022-08-20T22:04:05.281Z,17.45
2022-08-20T22:07:27.422Z,18.17
2022-08-20T22:10:53.219Z,18.92
2022-08-20T22:14:18.022Z,17.08
2022-08-20T22:17:39.678Z,16.02
2022-08-20T22:21:01.677Z,17.52
2022-08-20T22:24:25.226Z,16.95
2022-08-20T22:27:47.060Z,16.23
2022-08-20T22:31:11.121Z,17.70
2022-08-20T22:34:36.226Z,15.57
2022-08-20T22:37:57.982Z,16.48
2022-08-20T22:41:20.206Z,13.20
2022-08-20T22:44:42.048Z,11.00
2022-08-20T22:48:08.163Z,12.38
2022-08-20T22:51:34.684Z,12.55
2022-08-20T22:54:57.074Z,11.82
2022-08-20T22:58:19.109Z,14.10
2022-08-20T23:01:53.240Z,14.98
2022-08-20T23:05:19.827Z,11.98
2022-08-20T23:08:42.678Z,12.15
2022-08-20T23:12:05.021Z,11.25
2022-08-20T23:15:28.343Z,11.45
2022-08-20T23:18:49.929Z,11.48
2022-08-20T23:22:13.526Z,11.52
2022-08-20T23:25:36.460Z,12.18
2022-08-20T23:28:58.397Z,10.43
2022-08-20T23:32:20.269Z,12.07
2022-08-20T23:35:42.507Z,10.65
2022-08-20T23:39:07.333Z,14.18
2022-08-20T23:42:30.378Z,15.20
2022-08-20T23:45:52.350Z,13.52
2022-08-20T23:49:14.251Z,14.82
2022-08-20T23:52:36.095Z,12.57
2022-08-20T23:55:59.242Z,14.63
2022-08-20T23:59:21.523Z,11.68
